Time;durP1;ratioP1;P1;durP2;ratioP2;P2;SDS_P1;SDS_P2;PMS_P1;PMS_P2;Temp;Humidity;BMP_temperature;BMP_pressure;BME280_temperature;BME280_humidity;BME280_pressure;Samples;Min_cycle;Max_cycle;Signal;HPM_P1;HPM_P2
2023/10/17 00:00:17;;;;;;;;;;;;;;;21.13;38.36;95745.09;10441291;28;1528;-56
2023/10/17 00:05:19;;;;;;;;;;;;;;;21.12;38.28;95745.38;10437392;28;2622;-54
2023/10/17 00:10:19;;;;;;;;;;;;;;;21.12;38.22;95745.38;10426181;28;4598;-56
2023/10/17 00:15:35;;;;;;;;;;;;;;;21.10;38.11;95750.94;10428360;28;2629;-57
2023/10/17 00:20:39;;;;;;;;;;;;;;;21.10;38.14;95755.44;10429478;28;2683;-57
2023/10/17 00:25:42;;;;;;;;;;;;;;;21.06;38.25;95748.06;10425951;28;2557;-56
2023/10/17 00:30:42;;;;;;;;;;;;;;;21.06;38.41;95752.56;10432696;28;2582;-56
2023/10/17 00:35:48;;;;;;;;;;;;;;;21.03;38.31;95748.63;10431738;28;2009;-57
2023/10/17 00:40:51;;;;;;;;;;;;;;;21.03;38.11;95740.72;10439181;28;1878;-55
2023/10/17 00:45:51;;;;;;;;;;;;;;;21.00;38.45;95733.31;10430528;28;2505;-56
2023/10/17 00:50:58;;;;;;;;;;;;;;;21.00;38.08;95741.22;10418925;28;2771;-56
2023/10/17 00:55:59;;;;;;;;;;;;;;;20.98;37.90;95740.72;10430455;28;2524;-57
2023/10/17 01:01:16;;;;;;;;;;;;;;;20.98;38.33;95751.25;10421741;28;2599;-56
2023/10/17 01:06:31;;;;;;;;;;;;;;;20.96;38.05;95750.75;10423041;28;2535;-56
2023/10/17 01:11:31;;;;;;;;;;;;;;;20.95;38.10;95749.19;10437589;28;4685;-56
2023/10/17 01:16:33;;;;;;;;;;;;;;;20.94;38.04;95744.97;10439852;28;2652;-56
2023/10/17 01:21:34;;;;;;;;;;;;;;;20.92;38.00;95741.81;10439560;28;1950;-56
2023/10/17 01:26:37;;;;;;;;;;;;;;;20.91;37.90;95745.53;10425798;28;2563;-54
2023/10/17 01:31:43;;;;;;;;;;;;;;;20.90;38.22;95735.25;10424525;28;2598;-56
2023/10/17 01:36:44;;;;;;;;;;;;;;;20.89;38.20;95728.41;10430275;28;2663;-55
2023/10/17 01:41:48;;;;;;;;;;;;;;;20.87;37.92;95715.53;10439086;28;2721;-54
2023/10/17 01:46:49;;;;;;;;;;;;;;;20.86;38.14;95716.56;10430977;28;2652;-55
2023/10/17 01:51:50;;;;;;;;;;;;;;;20.84;38.03;95718.69;10438291;28;2543;-56
2023/10/17 01:56:51;;;;;;;;;;;;;;;20.83;37.94;95706.59;10443824;28;1966;-57
2023/10/17 02:01:51;;;;;;;;;;;;;;;20.82;38.23;95702.38;10442768;28;2651;-57
2023/10/17 02:06:51;;;;;;;;;;;;;;;20.81;37.92;95697.41;10433312;28;4598;-56
2023/10/17 02:11:54;;;;;;;;;;;;;;;20.80;38.00;95701.06;10434026;28;2545;-56
2023/10/17 02:16:56;;;;;;;;;;;;;;;20.76;37.93;95692.94;10428573;28;2676;-57
2023/10/17 02:21:58;;;;;;;;;;;;;;;20.76;37.79;95700.84;10435785;28;2583;-56
2023/10/17 02:27:06;;;;;;;;;;;;;;;20.76;38.06;95702.69;10440676;28;2563;-58
2023/10/17 02:32:12;;;;;;;;;;;;;;;20.75;38.09;95693.22;10430535;28;2776;-57
2023/10/17 02:37:16;;;;;;;;;;;;;;;20.73;37.96;95693.47;10426041;28;2628;-56
2023/10/17 02:42:16;;;;;;;;;;;;;;;20.72;38.22;95697.19;10430544;28;2508;-57
2023/10/17 02:47:20;;;;;;;;;;;;;;;20.72;38.16;95693.78;10432566;28;2706;-56
2023/10/17 02:52:21;;;;;;;;;;;;;;;20.69;38.05;95692.47;10428226;28;2677;-56
2023/10/17 02:57:21;;;;;;;;;;;;;;;20.68;37.99;95698.81;10430825;28;2666;-56
2023/10/17 03:02:30;;;;;;;;;;;;;;;20.68;37.85;95692.75;10434152;28;2665;-55
2023/10/17 03:07:30;;;;;;;;;;;;;;;20.67;38.13;95713.03;10430744;28;4652;-56
2023/10/17 03:12:40;;;;;;;;;;;;;;;20.66;37.79;95702.78;10428199;28;2690;-56
2023/10/17 03:17:40;;;;;;;;;;;;;;;20.64;38.05;95703.06;10433319;28;2612;-57
2023/10/17 03:22:40;;;;;;;;;;;;;;;20.64;37.99;95700.41;10429565;28;2606;-55
2023/10/17 03:27:48;;;;;;;;;;;;;;;20.62;38.07;95697.28;10428891;28;2702;-56
2023/10/17 03:33:05;;;;;;;;;;;;;;;20.62;37.83;95697.28;10428404;28;2806;-57
2023/10/17 03:38:08;;;;;;;;;;;;;;;20.60;37.85;95712.56;10427310;28;2628;-57
2023/10/17 03:43:11;;;;;;;;;;;;;;;20.60;37.82;95717.84;10432024;28;2762;-56
2023/10/17 03:48:15;;;;;;;;;;;;;;;20.59;37.61;95715.44;10422058;28;2588;-56
2023/10/17 03:53:15;;;;;;;;;;;;;;;20.58;37.85;95714.69;10426499;28;2801;-56
2023/10/17 04:03:30;;;;;;;;;;;;;;;20.55;37.74;95715.22;10430231;28;2725;-57
2023/10/17 04:08:31;;;;;;;;;;;;;;;20.55;37.94;95709.16;10426249;28;4677;-57
2023/10/17 04:13:34;;;;;;;;;;;;;;;20.56;37.87;95701.00;10430156;28;2668;-56
2023/10/17 04:18:37;;;;;;;;;;;;;;;20.58;37.43;95692.81;10434260;28;2787;-55
2023/10/17 04:23:38;;;;;;;;;;;;;;;20.61;37.55;95695.69;10427355;28;2599;-56
2023/10/17 04:28:41;;;;;;;;;;;;;;;20.68;37.48;95698.81;10427448;28;2608;-56
2023/10/17 04:33:41;;;;;;;;;;;;;;;20.72;37.57;95699.03;10434474;28;2555;-57
2023/10/17 04:38:46;;;;;;;;;;;;;;;20.79;37.44;95705.56;10425743;28;2607;-57
2023/10/17 04:43:55;;;;;;;;;;;;;;;20.84;37.67;95704.72;10426475;28;2771;-57
2023/10/17 04:49:06;;;;;;;;;;;;;;;20.91;37.32;95715.75;10426559;28;2699;-58
2023/10/17 04:59:41;;;;;;;;;;;;;;;21.00;37.10;95711.44;10426089;28;2615;-56
2023/10/17 06:19:32;;;;;;;;;;;;;;;21.55;36.79;95731.25;10432120;28;2563;-57
2023/10/17 06:24:45;;;;;;;;;;;;;;;21.57;36.88;95742.31;10430876;28;2620;-57
2023/10/17 06:34:47;;;;;;;;;;;;;;;21.62;36.28;95750.97;10437712;28;2555;-56
2023/10/17 06:39:47;;;;;;;;;;;;;;;21.63;36.48;95757.03;10438282;28;2634;-57
2023/10/17 06:44:54;;;;;;;;;;;;;;;21.62;36.34;95772.06;10436203;28;2685;-56
2023/10/17 06:55:21;;;;;;;;;;;;;;;21.64;36.15;95769.13;10433761;28;2647;-57
2023/10/17 07:00:24;;;;;;;;;;;;;;;21.62;36.35;95753.59;10434776;28;2563;-58
2023/10/17 07:05:26;;;;;;;;;;;;;;;21.62;36.25;95750.97;10432887;28;3081;-58
2023/10/17 07:15:30;;;;;;;;;;;;;;;21.62;36.63;95747.53;10430702;28;2647;-57
2023/10/17 07:21:15;;;;;;;;;;;;;;;21.62;36.84;95742.25;10432541;28;2594;-58
2023/10/17 07:25:55;;;;;;;;;;;;;;;21.63;36.53;95726.16;10423281;28;2558;-58
2023/10/17 07:31:01;;;;;;;;;;;;;;;21.60;36.73;95718.81;10431354;28;2690;-57
2023/10/17 07:36:01;;;;;;;;;;;;;;;21.60;36.91;95710.09;10434396;28;2747;-57
2023/10/17 07:41:12;;;;;;;;;;;;;;;21.59;36.64;95713.81;10430635;28;2570;-58
2023/10/17 07:46:18;;;;;;;;;;;;;;;21.57;36.26;95708.03;10434749;28;2564;-55
2023/10/17 07:51:18;;;;;;;;;;;;;;;21.56;36.25;95709.09;10433632;28;2524;-53
2023/10/17 07:56:23;;;;;;;;;;;;;;;21.54;36.19;95717.28;10430914;28;2613;-58
2023/10/17 08:01:32;;;;;;;;;;;;;;;21.50;36.32;95723.41;10437681;28;2571;-55
2023/10/17 08:06:32;;;;;;;;;;;;;;;21.48;36.29;95734.22;10428762;28;2673;-55
2023/10/17 08:11:36;;;;;;;;;;;;;;;21.46;36.28;95730.28;10432134;28;4554;-56
2023/10/17 08:16:40;;;;;;;;;;;;;;;21.44;36.42;95727.16;10432879;28;2519;-55
2023/10/17 08:21:49;;;;;;;;;;;;;;;21.42;36.09;95726.66;10428973;28;2591;-57
2023/10/17 08:27:12;;;;;;;;;;;;;;;21.38;36.26;95734.34;10426287;28;2663;-58
2023/10/17 08:37:44;;;;;;;;;;;;;;;21.31;36.30;95739.13;10405744;28;2588;-57
2023/10/17 08:42:49;;;;;;;;;;;;;;;21.30;36.35;95739.41;10428990;28;2571;-56
2023/10/17 08:47:50;;;;;;;;;;;;;;;21.29;36.50;95745.78;10432219;28;2553;-55
2023/10/17 08:52:51;;;;;;;;;;;;;;;21.26;36.53;95751.59;10426455;28;2543;-57
2023/10/17 08:57:52;;;;;;;;;;;;;;;21.24;36.46;95745.81;10429292;28;2592;-57
2023/10/17 09:03:02;;;;;;;;;;;;;;;21.24;36.61;95743.97;10425185;28;2701;-57
2023/10/17 09:08:11;;;;;;;;;;;;;;;21.23;36.74;95742.38;10430038;28;4769;-56
2023/10/17 09:18:21;;;;;;;;;;;;;;;21.18;36.64;95731.09;10433872;28;2547;-57
2023/10/17 09:23:23;;;;;;;;;;;;;;;21.15;37.07;95721.88;10429883;28;2557;-58
2023/10/17 09:28:25;;;;;;;;;;;;;;;21.13;36.86;95720.59;10427692;28;2578;-57
2023/10/17 09:33:31;;;;;;;;;;;;;;;21.11;37.05;95712.16;10423047;28;2622;-58
2023/10/17 09:38:34;;;;;;;;;;;;;;;21.05;36.72;95709.59;10423302;28;2591;-57
2023/10/17 09:43:36;;;;;;;;;;;;;;;21.05;37.20;95708.81;10425077;28;2645;-57
2023/10/17 09:48:36;;;;;;;;;;;;;;;21.02;37.06;95707.50;10427736;28;2683;-55
2023/10/17 09:59:17;;;;;;;;;;;;;;;20.98;37.44;95719.63;10428344;28;2533;-57
2023/10/17 10:04:18;;;;;;;;;;;;;;;20.97;36.97;95718.06;10433154;28;2736;-56
2023/10/17 10:09:27;;;;;;;;;;;;;;;20.95;37.62;95719.41;10414609;28;4590;-57
2023/10/17 10:14:28;;;;;;;;;;;;;;;20.92;37.59;95712.03;10435062;28;2610;-56
2023/10/17 10:19:40;;;;;;;;;;;;;;;20.90;37.85;95699.16;10429574;28;2638;-57
2023/10/17 10:24:41;;;;;;;;;;;;;;;20.90;37.70;95690.44;10430260;28;2620;-58
2023/10/17 10:29:41;;;;;;;;;;;;;;;20.88;38.16;95690.72;10433442;28;2550;-57
2023/10/17 10:34:45;;;;;;;;;;;;;;;20.87;37.99;95685.75;10450391;28;2804;-57
2023/10/17 10:40:10;;;;;;;;;;;;;;;20.85;38.21;95688.66;10429764;28;2648;-58
2023/10/17 10:45:29;;;;;;;;;;;;;;;20.84;38.01;95681.81;10450185;28;2726;-57
2023/10/17 10:50:30;;;;;;;;;;;;;;;20.81;38.42;95671.81;10434126;28;2921;-57
2023/10/17 10:55:33;;;;;;;;;;;;;;;20.83;38.17;95669.72;10437968;28;2658;-57
2023/10/17 11:00:33;;;;;;;;;;;;;;;20.81;38.24;95671.06;10432348;28;2615;-55
2023/10/17 11:05:34;;;;;;;;;;;;;;;20.80;38.49;95670.25;10431015;28;2625;-56
2023/10/17 11:10:34;;;;;;;;;;;;;;;20.81;38.00;95658.63;10429430;28;4741;-56
2023/10/17 11:15:35;;;;;;;;;;;;;;;20.83;38.46;95653.91;10431871;28;2550;-56
2023/10/17 11:20:36;;;;;;;;;;;;;;;20.83;38.30;95659.19;10433758;28;2597;-57
2023/10/17 11:25:36;;;;;;;;;;;;;;;20.84;38.26;95655.47;10432853;28;2836;-57
2023/10/17 11:30:40;;;;;;;;;;;;;;;20.81;38.29;95660.50;10431767;28;2520;-57
2023/10/17 11:35:47;;;;;;;;;;;;;;;20.80;38.31;95659.72;10430359;28;2636;-56
2023/10/17 11:40:47;;;;;;;;;;;;;;;20.77;38.40;95657.63;10427542;28;2600;-55
2023/10/17 11:45:47;;;;;;;;;;;;;;;20.75;38.39;95645.81;10417599;28;2678;-55
2023/10/17 11:50:50;;;;;;;;;;;;;;;20.77;38.42;95651.59;10432551;28;2665;-57
2023/10/17 11:55:52;;;;;;;;;;;;;;;20.76;38.48;95655.28;10426148;28;2575;-58
2023/10/17 12:00:53;;;;;;;;;;;;;;;20.74;38.30;95652.94;10430358;28;2650;-57
2023/10/17 12:05:56;;;;;;;;;;;;;;;20.73;38.33;95651.34;10434910;28;2669;-57
2023/10/17 12:10:57;;;;;;;;;;;;;;;20.71;38.24;95652.69;10426125;28;4531;-55
2023/10/17 12:16:02;;;;;;;;;;;;;;;20.68;38.53;95638.22;10431753;28;2653;-56
2023/10/17 12:21:04;;;;;;;;;;;;;;;20.69;38.31;95644.28;10427362;28;2693;-57
2023/10/17 12:26:08;;;;;;;;;;;;;;;20.66;38.47;95642.19;10431016;28;2645;-56
2023/10/17 12:31:16;;;;;;;;;;;;;;;20.65;38.65;95638.75;10428003;28;2587;-57
2023/10/17 12:36:19;;;;;;;;;;;;;;;20.63;38.56;95635.63;10428147;28;2659;-56
2023/10/17 12:41:20;;;;;;;;;;;;;;;20.62;38.77;95630.63;10423833;28;2600;-57
2023/10/17 12:46:20;;;;;;;;;;;;;;;20.62;38.75;95626.16;10431914;28;2747;-57
2023/10/17 12:51:23;;;;;;;;;;;;;;;20.61;38.75;95632.47;10424974;28;2619;-55
2023/10/17 12:56:24;;;;;;;;;;;;;;;20.60;38.80;95633.56;10425785;28;2648;-55
2023/10/17 13:01:25;;;;;;;;;;;;;;;20.58;38.88;95619.09;10424170;28;2594;-56
2023/10/17 13:06:25;;;;;;;;;;;;;;;20.57;38.69;95628.81;10423745;28;2623;-56
2023/10/17 13:11:28;;;;;;;;;;;;;;;20.56;38.61;95627.28;10429602;28;2595;-54
2023/10/17 13:16:28;;;;;;;;;;;;;;;20.55;38.53;95645.97;10430757;28;2642;-55
2023/10/17 13:21:29;;;;;;;;;;;;;;;20.53;38.91;95646.25;10429421;28;2669;-55
2023/10/17 13:26:32;;;;;;;;;;;;;;;20.52;38.71;95623.63;10432744;28;2665;-56
2023/10/17 13:31:33;;;;;;;;;;;;;;;20.50;38.63;95622.31;10433430;28;2678;-56
2023/10/17 13:36:33;;;;;;;;;;;;;;;20.50;38.81;95617.84;10433443;28;2587;-55
2023/10/17 13:41:33;;;;;;;;;;;;;;;20.49;38.95;95621.53;10432410;28;2621;-56
2023/10/17 13:46:35;;;;;;;;;;;;;;;20.54;38.78;95618.88;10433052;28;2593;-56
2023/10/17 13:51:35;;;;;;;;;;;;;;;20.59;38.13;95623.28;10431907;28;2663;-56
2023/10/17 13:56:36;;;;;;;;;;;;;;;20.63;38.10;95613.78;10434893;28;2667;-55
2023/10/17 14:01:45;;;;;;;;;;;;;;;20.67;38.27;95620.84;10431500;28;2544;-57
2023/10/17 14:06:45;;;;;;;;;;;;;;;20.71;38.46;95613.94;10429318;28;2607;-55
2023/10/17 14:11:48;;;;;;;;;;;;;;;20.78;38.56;95613.63;10441912;28;4689;-54
2023/10/17 14:16:50;;;;;;;;;;;;;;;20.81;38.46;95594.66;10440619;28;2531;-55
2023/10/17 14:27:12;;;;;;;;;;;;;;;20.91;38.34;95574.25;10445262;28;1946;-58
2023/10/17 14:32:13;;;;;;;;;;;;;;;20.97;38.19;95575.78;10443665;28;1865;-57
2023/10/17 14:37:14;;;;;;;;;;;;;;;21.00;38.03;95577.03;10443526;28;2560;-58
2023/10/17 14:42:14;;;;;;;;;;;;;;;21.03;38.23;95558.88;10442197;28;1834;-57
2023/10/17 14:47:16;;;;;;;;;;;;;;;21.09;38.10;95578.03;10447820;28;1914;-58
2023/10/17 14:52:18;;;;;;;;;;;;;;;21.11;38.10;95581.19;10448833;28;2347;-58
2023/10/17 14:57:19;;;;;;;;;;;;;;;21.13;38.16;95573.78;10444373;28;2532;-59
2023/10/17 15:02:19;;;;;;;;;;;;;;;21.15;37.93;95576.91;10443176;28;1911;-59
2023/10/17 15:07:19;;;;;;;;;;;;;;;21.19;37.96;95587.69;10447928;28;4699;-59
2023/10/17 15:12:20;;;;;;;;;;;;;;;21.21;37.74;95580.28;10447246;28;1574;-59
2023/10/17 15:17:20;;;;;;;;;;;;;;;21.24;37.79;95542.81;10449007;28;1778;-58
2023/10/17 15:22:21;;;;;;;;;;;;;;;21.26;38.04;95535.41;10446555;28;1860;-56
2023/10/17 15:27:21;;;;;;;;;;;;;;;21.29;37.59;95545.41;10444844;28;2611;-59
2023/10/17 15:32:24;;;;;;;;;;;;;;;21.31;37.73;95533.50;10446049;28;1687;-58
2023/10/17 15:37:24;;;;;;;;;;;;;;;21.32;37.84;95552.72;10446732;28;2371;-58
2023/10/17 15:42:26;;;;;;;;;;;;;;;21.36;37.41;95543.19;10447419;28;1532;-57
2023/10/17 15:47:27;;;;;;;;;;;;;;;21.38;37.46;95519.97;10438404;28;2571;-59
2023/10/17 15:52:27;;;;;;;;;;;;;;;21.43;37.91;95554.19;10440955;28;1811;-54
2023/10/17 15:57:27;;;;;;;;;;;;;;;21.49;38.09;95526.69;10448983;28;1570;-57
2023/10/17 16:02:28;;;;;;;;;;;;;;;21.53;38.02;95522.41;10444907;28;1908;-59
2023/10/17 16:07:28;;;;;;;;;;;;;;;21.57;37.53;95521.56;10436569;28;4724;-59
2023/10/17 16:12:30;;;;;;;;;;;;;;;21.60;37.69;95514.91;10443480;28;2572;-59
2023/10/17 16:17:30;;;;;;;;;;;;;;;21.64;37.60;95545.72;10440926;28;1794;-58
2023/10/17 16:22:30;;;;;;;;;;;;;;;21.67;37.76;95524.06;10440279;28;2791;-57
2023/10/17 16:27:34;;;;;;;;;;;;;;;21.70;37.37;95525.34;10435390;28;1975;-57
2023/10/17 16:32:34;;;;;;;;;;;;;;;21.76;37.20;95534.75;10437813;28;1890;-56
2023/10/17 16:37:36;;;;;;;;;;;;;;;21.78;36.91;95545.81;10438528;28;1747;-56
2023/10/17 16:42:38;;;;;;;;;;;;;;;21.80;37.11;95546.31;10437057;28;2622;-54
2023/10/17 16:47:38;;;;;;;;;;;;;;;21.82;36.70;95571.34;10432936;28;1977;-55
2023/10/17 16:52:39;;;;;;;;;;;;;;;21.84;37.02;95574.47;10426825;28;2591;-57
2023/10/17 16:57:39;;;;;;;;;;;;;;;21.90;37.04;95584.97;10431226;28;1905;-55
2023/10/17 17:02:40;;;;;;;;;;;;;;;21.95;36.81;95580.41;10428323;28;2610;-56
2023/10/17 17:07:40;;;;;;;;;;;;;;;22.02;36.63;95587.97;10428649;28;4531;-58
2023/10/17 17:12:41;;;;;;;;;;;;;;;21.72;35.59;95578.59;10441946;28;2574;-58
2023/10/17 17:17:42;;;;;;;;;;;;;;;21.29;35.26;95582.31;10428045;28;2845;-58
2023/10/17 17:22:43;;;;;;;;;;;;;;;21.02;35.21;95586.28;10432987;28;2496;-56
2023/10/17 17:27:43;;;;;;;;;;;;;;;20.76;35.65;95582.31;10427119;28;2559;-57
2023/10/17 17:32:44;;;;;;;;;;;;;;;20.64;35.67;95581.91;10422420;28;2675;-56
2023/10/17 17:37:44;;;;;;;;;;;;;;;20.55;35.65;95570.38;10425750;28;2551;-55
2023/10/17 17:42:44;;;;;;;;;;;;;;;20.42;35.64;95563.16;10427199;28;2570;-56
2023/10/17 17:47:45;;;;;;;;;;;;;;;20.24;35.70;95571.69;10428859;28;2629;-57
2023/10/17 17:52:45;;;;;;;;;;;;;;;20.15;35.94;95568.84;10426819;28;2561;-58
2023/10/17 17:57:45;;;;;;;;;;;;;;;19.93;36.04;95565.84;10425780;28;3147;-57
2023/10/17 18:02:47;;;;;;;;;;;;;;;19.79;36.04;95564.88;10428126;28;3047;-58
2023/10/17 18:07:47;;;;;;;;;;;;;;;19.77;37.02;95564.38;10428462;28;4797;-58
2023/10/17 18:12:49;;;;;;;;;;;;;;;19.88;37.88;95560.63;10429919;28;2567;-58
2023/10/17 18:17:49;;;;;;;;;;;;;;;20.19;38.24;95559.38;10440056;28;2520;-58
2023/10/17 18:22:49;;;;;;;;;;;;;;;20.51;38.09;95552.78;10439782;28;2535;-57
2023/10/17 18:27:54;;;;;;;;;;;;;;;20.71;38.02;95549.97;10433864;28;2656;-57
2023/10/17 18:32:54;;;;;;;;;;;;;;;20.92;37.92;95541.56;10438084;28;2735;-58
2023/10/17 18:37:55;;;;;;;;;;;;;;;21.16;37.37;95540.81;10434466;28;2976;-57
2023/10/17 18:42:56;;;;;;;;;;;;;;;21.19;37.87;95545.50;10434984;28;2840;-57
2023/10/17 18:47:57;;;;;;;;;;;;;;;21.30;38.06;95541.69;10432653;28;2912;-58
2023/10/17 18:52:59;;;;;;;;;;;;;;;21.35;38.24;95544.28;10425668;28;2571;-58
2023/10/17 18:57:59;;;;;;;;;;;;;;;21.47;37.75;95542.00;10430374;28;2564;-58
2023/10/17 19:03:00;;;;;;;;;;;;;;;21.54;37.86;95537.94;10427790;28;2723;-54
2023/10/17 19:08:03;;;;;;;;;;;;;;;21.62;37.81;95542.56;10431396;28;5097;-55
2023/10/17 19:13:03;;;;;;;;;;;;;;;21.72;37.23;95549.59;10410599;28;2645;-55
2023/10/17 19:18:03;;;;;;;;;;;;;;;21.77;36.99;95544.22;10425637;28;2600;-56
2023/10/17 19:23:04;;;;;;;;;;;;;;;21.84;37.08;95536.78;10431967;28;2816;-57
2023/10/17 19:28:04;;;;;;;;;;;;;;;21.90;36.98;95540.91;10427812;28;2551;-57
2023/10/17 19:33:05;;;;;;;;;;;;;;;21.94;36.91;95549.03;10426983;28;2602;-57
2023/10/17 19:38:07;;;;;;;;;;;;;;;21.99;36.95;95548.97;10429708;28;2961;-56
2023/10/17 19:43:07;;;;;;;;;;;;;;;22.01;37.15;95552.84;10442238;28;2796;-56
2023/10/17 19:48:07;;;;;;;;;;;;;;;22.03;36.92;95542.78;10440575;28;1942;-55
2023/10/17 19:53:09;;;;;;;;;;;;;;;22.06;36.61;95539.59;10433183;28;1543;-55
2023/10/17 19:58:09;;;;;;;;;;;;;;;22.02;36.87;95543.88;10435091;28;2037;-57
2023/10/17 20:03:11;;;;;;;;;;;;;;;22.00;35.93;95540.75;10433367;28;1683;-57
2023/10/17 20:08:11;;;;;;;;;;;;;;;22.01;36.36;95531.75;10434136;28;4871;-56
2023/10/17 20:13:12;;;;;;;;;;;;;;;22.01;36.14;95528.34;10436587;28;1810;-55
2023/10/17 20:18:13;;;;;;;;;;;;;;;21.95;36.40;95521.56;10420102;28;1457;-55
2023/10/17 20:23:13;;;;;;;;;;;;;;;21.95;36.14;95518.94;10437313;28;1596;-56
2023/10/17 20:28:13;;;;;;;;;;;;;;;21.96;35.50;95507.28;10441147;28;2872;-57
2023/10/17 20:33:14;;;;;;;;;;;;;;;21.94;35.71;95499.66;10439252;28;2009;-58
2023/10/17 20:38:14;;;;;;;;;;;;;;;21.93;36.08;95502.59;10419648;28;2385;-57
2023/10/17 20:43:14;;;;;;;;;;;;;;;21.91;35.77;95502.09;10437797;28;2569;-56
2023/10/17 20:48:15;;;;;;;;;;;;;;;21.91;36.04;95494.94;10433211;28;2701;-56
2023/10/17 20:53:15;;;;;;;;;;;;;;;21.80;36.57;95493.53;10427070;28;2544;-57
2023/10/17 20:58:15;;;;;;;;;;;;;;;21.78;36.48;95495.66;10431440;28;2516;-57
2023/10/17 21:03:16;;;;;;;;;;;;;;;21.70;37.04;95483.13;10427528;28;2647;-56
2023/10/17 21:08:17;;;;;;;;;;;;;;;21.66;36.88;95482.09;10427913;28;2588;-58
2023/10/17 21:13:17;;;;;;;;;;;;;;;21.58;36.85;95475.63;10429420;28;2895;-58
2023/10/17 21:18:18;;;;;;;;;;;;;;;21.55;37.01;95478.06;10425018;28;2743;-58
2023/10/17 21:23:18;;;;;;;;;;;;;;;21.48;36.77;95478.41;10432424;28;2615;-58
2023/10/17 21:28:18;;;;;;;;;;;;;;;21.43;36.85;95475.09;10427365;28;2607;-58
2023/10/17 21:33:19;;;;;;;;;;;;;;;21.39;36.59;95469.56;10427069;28;2627;-58
2023/10/17 21:38:19;;;;;;;;;;;;;;;21.37;36.67;95463.03;10430120;28;2718;-58
2023/10/17 21:43:19;;;;;;;;;;;;;;;21.29;36.78;95448.63;10421716;28;2576;-58
2023/10/17 21:48:19;;;;;;;;;;;;;;;21.26;36.61;95445.78;10421167;28;2632;-57
2023/10/17 21:53:20;;;;;;;;;;;;;;;21.21;36.65;95443.19;10435386;28;2588;-56
2023/10/17 21:58:20;;;;;;;;;;;;;;;21.16;36.66;95445.91;10432341;28;2796;-59
2023/10/17 22:03:22;;;;;;;;;;;;;;;21.14;36.44;95437.50;10435740;28;2602;-56
2023/10/17 22:08:22;;;;;;;;;;;;;;;21.11;36.30;95438.06;10434649;28;4653;-56
2023/10/17 22:13:23;;;;;;;;;;;;;;;21.06;36.28;95423.91;10435956;28;2607;-56
2023/10/17 22:18:23;;;;;;;;;;;;;;;21.04;36.49;95431.31;10439364;28;2708;-58
2023/10/17 22:23:24;;;;;;;;;;;;;;;21.02;36.41;95422.91;10441499;28;2600;-58
2023/10/17 22:28:24;;;;;;;;;;;;;;;20.99;36.36;95418.19;10442726;28;2609;-58
2023/10/17 22:33:24;;;;;;;;;;;;;;;20.99;36.54;95426.09;10440241;28;2595;-58
2023/10/17 22:38:24;;;;;;;;;;;;;;;20.96;36.44;95423.22;10434625;28;2575;-58
2023/10/17 22:43:25;;;;;;;;;;;;;;;20.94;36.77;95423.50;10433547;28;2766;-55
2023/10/17 22:48:25;;;;;;;;;;;;;;;20.93;36.57;95421.16;10436497;28;2689;-58
2023/10/17 22:53:28;;;;;;;;;;;;;;;20.91;36.85;95418.03;10432305;28;2595;-57
2023/10/17 22:58:28;;;;;;;;;;;;;;;20.89;36.63;95410.41;10435316;28;2600;-58
2023/10/17 23:03:29;;;;;;;;;;;;;;;20.88;36.85;95402.75;10435339;28;2595;-56
2023/10/17 23:08:29;;;;;;;;;;;;;;;20.86;36.86;95402.25;10434541;28;4681;-56
2023/10/17 23:13:29;;;;;;;;;;;;;;;20.83;36.81;95397.56;10431283;28;2674;-57
2023/10/17 23:18:30;;;;;;;;;;;;;;;20.81;36.90;95389.94;10436703;28;2606;-57
2023/10/17 23:23:31;;;;;;;;;;;;;;;20.78;37.01;95390.53;10432132;28;2995;-58
2023/10/17 23:28:31;;;;;;;;;;;;;;;20.76;36.95;95395.28;10430802;28;2926;-58
2023/10/17 23:33:32;;;;;;;;;;;;;;;20.74;36.85;95392.16;10433747;28;2561;-57
2023/10/17 23:38:32;;;;;;;;;;;;;;;20.71;37.18;95395.34;10430871;28;2710;-57
2023/10/17 23:43:33;;;;;;;;;;;;;;;20.69;37.09;95384.31;10434830;28;2649;-57
2023/10/17 23:48:33;;;;;;;;;;;;;;;20.67;37.13;95375.91;10432694;28;2901;-58
2023/10/17 23:53:35;;;;;;;;;;;;;;;20.65;37.26;95378.03;10426529;28;2563;-58
2023/10/17 23:58:38;;;;;;;;;;;;;;;20.64;37.05;95370.41;10429465;28;2588;-58
